createdAt,value
2022-08-19T00:00:37.506Z,0.00
2022-08-19T00:01:37.980Z,0.00
2022-08-19T00:02:37.485Z,0.00
2022-08-19T00:03:38.466Z,0.00
2022-08-19T00:04:37.857Z,0.00
2022-08-19T00:05:37.462Z,0.00
2022-08-19T00:06:37.417Z,0.00
2022-08-19T00:07:37.412Z,0.00
2022-08-19T00:08:37.401Z,0.00
2022-08-19T00:09:38.461Z,0.00
2022-08-19T00:10:37.376Z,0.00
2022-08-19T00:11:37.379Z,0.00
2022-08-19T00:12:37.349Z,0.00
2022-08-19T00:13:38.344Z,0.00
2022-08-19T00:14:37.367Z,0.00
2022-08-19T00:15:37.306Z,0.00
2022-08-19T00:16:37.312Z,0.00
2022-08-19T00:17:37.298Z,0.00
2022-08-19T00:18:37.294Z,0.00
2022-08-19T00:19:37.330Z,0.00
2022-08-19T00:20:37.271Z,0.00
2022-08-19T00:21:37.284Z,0.00
2022-08-19T00:22:37.235Z,0.00
2022-08-19T00:23:37.234Z,0.00
2022-08-19T00:24:37.271Z,0.00
2022-08-19T00:25:37.220Z,0.00
2022-08-19T00:26:37.214Z,0.00
2022-08-19T00:27:37.193Z,0.00
2022-08-19T00:28:37.189Z,0.00
2022-08-19T00:29:37.221Z,0.00
2022-08-19T00:30:37.159Z,0.00
2022-08-19T00:31:37.147Z,0.00
2022-08-19T00:32:37.146Z,0.00
2022-08-19T00:33:37.126Z,0.00
2022-08-19T00:34:37.157Z,0.00
2022-08-19T00:35:37.114Z,0.00
2022-08-19T00:36:37.085Z,0.00
2022-08-19T00:37:37.090Z,0.00
2022-08-19T00:38:38.022Z,0.00
2022-08-19T00:39:37.151Z,0.00
2022-08-19T00:40:37.030Z,0.00
2022-08-19T00:41:37.030Z,0.00
2022-08-19T00:42:37.006Z,0.00
2022-08-19T00:43:37.006Z,0.00
2022-08-19T00:44:37.027Z,0.00
2022-08-19T00:45:36.996Z,0.00
2022-08-19T00:46:36.988Z,0.00
2022-08-19T00:47:36.974Z,0.00
2022-08-19T00:48:36.950Z,0.00
2022-08-19T00:49:36.974Z,0.00
2022-08-19T00:50:36.939Z,0.00
2022-08-19T00:51:37.930Z,0.00
2022-08-19T00:52:36.902Z,0.00
2022-08-19T00:53:36.911Z,0.00
2022-08-19T00:54:36.929Z,0.00
2022-08-19T00:55:36.891Z,0.00
2022-08-19T00:56:36.849Z,0.00
2022-08-19T00:57:36.847Z,0.00
2022-08-19T00:58:36.837Z,0.00
2022-08-19T00:59:56.152Z,0.00
2022-08-19T01:00:37.809Z,0.00
2022-08-19T01:01:36.873Z,0.00
2022-08-19T01:02:36.795Z,0.00
2022-08-19T01:03:57.233Z,0.00
2022-08-19T01:04:37.828Z,0.00
2022-08-19T01:05:36.770Z,0.00
2022-08-19T01:06:36.755Z,0.00
2022-08-19T01:07:38.430Z,0.00
2022-08-19T01:08:36.716Z,0.00
2022-08-19T01:09:36.764Z,0.00
2022-08-19T01:10:37.032Z,0.00
2022-08-19T01:11:36.678Z,0.00
2022-08-19T01:12:36.660Z,0.00
2022-08-19T01:13:49.570Z,0.00
2022-08-19T01:14:37.685Z,0.00
2022-08-19T01:15:36.646Z,0.00
2022-08-19T01:16:36.645Z,0.00
2022-08-19T01:17:36.622Z,0.00
2022-08-19T01:18:36.627Z,0.00
2022-08-19T01:19:44.405Z,0.00
2022-08-19T01:20:37.572Z,0.00
2022-08-19T01:21:36.594Z,0.00
2022-08-19T01:22:36.562Z,0.00
2022-08-19T01:23:36.573Z,0.00
2022-08-19T01:24:36.595Z,0.00
2022-08-19T01:25:37.544Z,0.00
2022-08-19T01:26:36.529Z,0.00
2022-08-19T01:27:43.001Z,0.00
2022-08-19T01:28:39.841Z,0.00
2022-08-19T01:29:36.542Z,0.00
2022-08-19T01:30:36.469Z,0.00
2022-08-19T01:31:36.465Z,0.00
2022-08-19T01:32:36.463Z,0.00
2022-08-19T01:33:36.454Z,0.00
2022-08-19T01:34:36.499Z,0.00
2022-08-19T01:35:36.427Z,0.00
2022-08-19T01:36:36.394Z,0.00
2022-08-19T01:37:36.410Z,0.00
2022-08-19T01:38:36.396Z,0.00
2022-08-19T01:39:37.501Z,0.00
2022-08-19T01:40:36.350Z,0.00
2022-08-19T01:41:36.330Z,0.00
2022-08-19T01:42:36.339Z,0.00
2022-08-19T01:43:36.319Z,0.00
2022-08-19T01:44:36.373Z,0.00
2022-08-19T01:45:36.299Z,0.00
2022-08-19T01:46:36.314Z,0.00
2022-08-19T01:47:36.289Z,0.00
2022-08-19T01:48:36.281Z,0.00
2022-08-19T01:49:36.266Z,0.00
2022-08-19T01:50:36.299Z,0.00
2022-08-19T01:51:39.935Z,0.00
2022-08-19T01:52:36.227Z,0.00
2022-08-19T01:53:36.240Z,0.00
2022-08-19T01:54:36.200Z,0.00
2022-08-19T01:55:36.234Z,0.00
2022-08-19T01:56:36.199Z,0.00
2022-08-19T01:57:36.162Z,0.00
2022-08-19T01:58:36.169Z,0.00
2022-08-19T01:59:36.130Z,0.00
2022-08-19T02:00:36.176Z,0.00
2022-08-19T02:01:36.230Z,0.00
2022-08-19T02:02:36.098Z,0.00
2022-08-19T02:03:36.090Z,0.00
2022-08-19T02:04:36.093Z,0.00
2022-08-19T02:05:36.114Z,0.00
2022-08-19T02:06:36.064Z,0.00
2022-08-19T02:07:36.047Z,0.00
2022-08-19T02:08:36.049Z,0.00
2022-08-19T02:09:36.018Z,0.00
2022-08-19T02:10:36.058Z,0.00
2022-08-19T02:11:35.971Z,0.00
2022-08-19T02:12:35.985Z,0.00
2022-08-19T02:13:35.977Z,0.00
2022-08-19T02:14:35.960Z,0.00
2022-08-19T02:15:36.024Z,0.00
2022-08-19T02:16:35.946Z,0.00
2022-08-19T02:17:35.945Z,0.00
2022-08-19T02:18:35.932Z,0.00
2022-08-19T02:19:35.898Z,0.00
2022-08-19T02:20:35.938Z,0.00
2022-08-19T02:21:35.871Z,0.00
2022-08-19T02:22:35.880Z,0.00
2022-08-19T02:23:35.858Z,0.00
2022-08-19T02:24:35.874Z,0.00
2022-08-19T02:25:35.892Z,0.00
2022-08-19T02:26:35.823Z,0.00
2022-08-19T02:27:35.818Z,0.00
2022-08-19T02:28:35.807Z,0.00
2022-08-19T02:29:35.849Z,0.00
2022-08-19T02:30:35.769Z,0.00
2022-08-19T02:31:35.794Z,0.00
2022-08-19T02:32:35.767Z,0.00
2022-08-19T02:33:36.757Z,0.00
2022-08-19T02:34:35.807Z,0.00
2022-08-19T02:35:35.743Z,0.00
2022-08-19T02:36:35.732Z,0.00
2022-08-19T02:37:35.699Z,0.00
2022-08-19T02:38:35.734Z,0.00
2022-08-19T02:39:35.777Z,0.00
2022-08-19T02:40:35.653Z,0.00
2022-08-19T02:41:35.644Z,0.00
2022-08-19T02:42:35.638Z,0.00
2022-08-19T02:43:35.658Z,0.00
2022-08-19T02:44:35.677Z,0.00
2022-08-19T02:45:35.611Z,0.00
2022-08-19T02:46:35.597Z,0.00
2022-08-19T02:47:35.599Z,0.00
2022-08-19T02:48:35.571Z,0.00
2022-08-19T02:49:35.617Z,0.00
2022-08-19T02:50:35.559Z,0.00
2022-08-19T02:51:35.550Z,0.00
2022-08-19T02:52:35.539Z,0.00
2022-08-19T02:53:35.526Z,0.00
2022-08-19T02:54:35.554Z,0.00
2022-08-19T02:55:45.808Z,0.00
2022-08-19T02:56:36.514Z,0.00
2022-08-19T02:57:35.477Z,0.00
2022-08-19T02:58:35.497Z,0.00
2022-08-19T02:59:35.504Z,0.00
2022-08-19T03:00:35.446Z,0.00
2022-08-19T03:01:36.452Z,0.00
2022-08-19T03:02:35.425Z,0.00
2022-08-19T03:03:35.426Z,0.00
2022-08-19T03:04:35.399Z,0.00
2022-08-19T03:05:47.971Z,0.00
2022-08-19T03:06:36.386Z,0.00
2022-08-19T03:07:35.348Z,0.00
2022-08-19T03:08:35.360Z,0.00
2022-08-19T03:09:35.338Z,0.00
2022-08-19T03:10:35.365Z,0.00
2022-08-19T03:11:35.303Z,0.00
2022-08-19T03:12:35.292Z,0.00
2022-08-19T03:13:35.294Z,0.00
2022-08-19T03:14:35.281Z,0.00
2022-08-19T03:15:35.310Z,0.00
2022-08-19T03:16:35.261Z,0.00
2022-08-19T03:17:35.254Z,0.00
2022-08-19T03:18:35.240Z,4.00
2022-08-19T03:19:35.235Z,4.00
2022-08-19T03:20:35.275Z,4.00
2022-08-19T03:21:35.209Z,4.00
2022-08-19T03:22:35.191Z,4.00
2022-08-19T03:23:35.178Z,4.00
2022-08-19T03:24:35.206Z,8.00
2022-08-19T03:25:35.210Z,4.00
2022-08-19T03:26:35.158Z,8.00
2022-08-19T03:27:35.137Z,8.00
2022-08-19T03:28:35.134Z,12.00
2022-08-19T03:29:35.108Z,12.00
2022-08-19T03:30:36.162Z,12.00
2022-08-19T03:31:44.563Z,16.00
2022-08-19T03:32:36.084Z,16.00
2022-08-19T03:33:36.068Z,24.00
2022-08-19T03:34:35.062Z,24.00
2022-08-19T03:35:35.088Z,32.00
2022-08-19T03:36:35.032Z,36.00
2022-08-19T03:37:35.042Z,44.00
2022-08-19T03:38:35.012Z,52.00
2022-08-19T03:39:35.051Z,60.00
2022-08-19T03:40:35.025Z,72.00
2022-08-19T03:41:45.152Z,76.00
2022-08-19T03:42:48.826Z,88.00
2022-08-19T03:43:35.962Z,96.00
2022-08-19T03:44:34.960Z,108.00
2022-08-19T03:45:34.999Z,124.00
2022-08-19T03:46:34.942Z,136.00
2022-08-19T03:47:34.908Z,152.00
2022-08-19T03:48:34.918Z,168.00
2022-08-19T03:49:34.901Z,180.00
2022-08-19T03:50:34.938Z,200.00
2022-08-19T03:51:34.875Z,216.00
2022-08-19T03:52:34.882Z,240.00
2022-08-19T03:53:34.855Z,264.00
2022-08-19T03:54:34.838Z,288.00
2022-08-19T03:55:34.871Z,312.00
2022-08-19T03:56:34.858Z,340.00
2022-08-19T03:57:34.822Z,360.00
2022-08-19T03:58:34.796Z,376.00
2022-08-19T03:59:34.794Z,396.00
2022-08-19T04:00:34.830Z,420.00
2022-08-19T04:01:34.949Z,440.00
2022-08-19T04:02:34.772Z,460.00
2022-08-19T04:03:34.765Z,488.00
2022-08-19T04:04:34.754Z,496.00
2022-08-19T04:05:34.778Z,508.00
2022-08-19T04:06:34.725Z,524.00
2022-08-19T04:07:34.733Z,532.00
2022-08-19T04:08:34.675Z,536.00
2022-08-19T04:09:34.677Z,532.00
2022-08-19T04:10:34.696Z,528.00
2022-08-19T04:11:43.039Z,544.00
2022-08-19T04:12:35.642Z,552.00
2022-08-19T04:13:34.634Z,564.00
2022-08-19T04:14:34.666Z,584.00
2022-08-19T04:15:34.662Z,608.00
2022-08-19T04:16:35.288Z,624.00
2022-08-19T04:17:34.573Z,628.00
2022-08-19T04:18:36.471Z,644.00
2022-08-19T04:19:34.551Z,684.00
2022-08-19T04:20:34.595Z,744.00
2022-08-19T04:21:34.540Z,804.00
2022-08-19T04:22:34.543Z,864.00
2022-08-19T04:23:34.525Z,936.00
2022-08-19T04:24:34.483Z,1028.00
2022-08-19T04:25:34.535Z,1096.00
2022-08-19T04:26:34.482Z,1156.00
2022-08-19T04:27:34.464Z,1224.00
2022-08-19T04:28:34.462Z,1312.00
2022-08-19T04:29:34.448Z,1384.00
2022-08-19T04:30:34.513Z,1440.00
2022-08-19T04:31:34.426Z,1512.00
2022-08-19T04:32:34.415Z,1572.00
2022-08-19T04:33:34.407Z,1628.00
2022-08-19T04:34:34.386Z,1688.00
2022-08-19T04:35:34.418Z,1736.00
2022-08-19T04:36:34.375Z,1784.00
2022-08-19T04:37:35.473Z,1860.00
2022-08-19T04:38:34.321Z,1956.00
2022-08-19T04:39:34.340Z,2076.00
2022-08-19T04:40:34.295Z,2220.00
2022-08-19T04:41:34.328Z,2396.00
2022-08-19T04:42:34.287Z,2620.00
2022-08-19T04:43:34.320Z,2864.00
2022-08-19T04:44:35.221Z,3100.00
2022-08-19T04:45:39.679Z,3268.00
2022-08-19T04:46:39.536Z,3412.00
2022-08-19T04:47:47.967Z,3580.00
2022-08-19T04:48:35.345Z,3788.00
2022-08-19T04:49:34.205Z,4036.00
2022-08-19T04:50:34.201Z,4332.00
2022-08-19T04:51:34.227Z,4636.00
2022-08-19T04:52:34.184Z,4912.00
2022-08-19T04:53:37.699Z,5100.00
2022-08-19T04:54:37.489Z,5252.00
2022-08-19T04:55:38.261Z,5436.00
2022-08-19T04:56:34.187Z,5656.00
2022-08-19T04:57:34.134Z,5936.00
2022-08-19T04:58:34.105Z,6260.00
2022-08-19T04:59:34.088Z,6548.00
2022-08-19T05:00:34.095Z,6728.00
2022-08-19T05:01:34.114Z,6996.00
2022-08-19T05:02:34.081Z,6988.00
2022-08-19T05:03:34.067Z,6740.00
2022-08-19T05:04:34.061Z,6456.00
2022-08-19T05:05:45.213Z,6184.00
2022-08-19T05:06:35.066Z,5980.00
2022-08-19T05:07:33.997Z,5948.00
2022-08-19T05:08:33.972Z,5912.00
2022-08-19T05:09:56.651Z,5936.00
2022-08-19T05:10:34.954Z,5956.00
2022-08-19T05:11:34.002Z,6420.00
2022-08-19T05:12:33.954Z,6784.00
2022-08-19T05:13:33.934Z,7280.00
2022-08-19T05:14:33.931Z,7900.00
2022-08-19T05:15:33.903Z,8288.00
2022-08-19T05:16:33.927Z,8408.00
2022-08-19T05:17:38.418Z,8864.00
2022-08-19T05:18:34.875Z,9088.00
2022-08-19T05:19:33.864Z,9260.00
2022-08-19T05:20:33.854Z,9548.00
2022-08-19T05:21:33.896Z,9276.00
2022-08-19T05:22:33.827Z,8932.00
2022-08-19T05:23:33.792Z,10004.00
2022-08-19T05:24:33.830Z,10052.00
2022-08-19T05:25:33.808Z,10040.00
2022-08-19T05:26:33.825Z,9652.00
2022-08-19T05:27:33.774Z,9560.00
2022-08-19T05:28:33.759Z,9052.00
2022-08-19T05:29:36.316Z,9064.00
2022-08-19T05:30:46.833Z,9136.00
2022-08-19T05:31:34.795Z,9080.00
2022-08-19T05:32:33.728Z,9004.00
2022-08-19T05:33:33.723Z,8552.00
2022-08-19T05:34:33.704Z,8968.00
2022-08-19T05:35:34.751Z,9080.00
2022-08-19T05:36:33.717Z,8604.00
2022-08-19T05:37:33.647Z,8492.00
2022-08-19T05:38:33.638Z,8852.00
2022-08-19T05:39:33.652Z,8796.00
2022-08-19T05:40:33.635Z,8724.00
2022-08-19T05:41:33.647Z,8352.00
2022-08-19T05:42:33.624Z,8452.00
2022-08-19T05:43:33.603Z,8228.00
2022-08-19T05:44:33.599Z,7904.00
2022-08-19T05:45:33.558Z,8164.00
2022-08-19T05:46:33.587Z,8800.00
2022-08-19T05:47:33.549Z,9380.00
2022-08-19T05:48:33.562Z,9756.00
2022-08-19T05:49:33.522Z,10240.00
2022-08-19T05:50:33.510Z,10256.00
2022-08-19T05:51:33.537Z,10352.00
2022-08-19T05:52:33.619Z,10576.00
2022-08-19T05:53:33.474Z,10372.00
2022-08-19T05:54:33.462Z,10708.00
2022-08-19T05:55:33.465Z,11500.00
2022-08-19T05:56:33.468Z,11868.00
2022-08-19T05:57:33.423Z,12768.00
2022-08-19T05:58:33.424Z,13148.00
2022-08-19T05:59:33.406Z,13388.00
2022-08-19T06:00:33.410Z,13376.00
2022-08-19T06:01:33.434Z,13848.00
2022-08-19T06:02:33.392Z,14116.00
2022-08-19T06:03:33.369Z,13956.00
2022-08-19T06:04:33.339Z,13724.00
2022-08-19T06:05:33.350Z,13620.00
2022-08-19T06:06:34.384Z,14656.00
2022-08-19T06:07:33.304Z,16832.00
2022-08-19T06:08:34.008Z,17792.00
2022-08-19T06:09:33.313Z,17632.00
2022-08-19T06:10:33.281Z,17600.00
2022-08-19T06:11:33.328Z,18144.00
2022-08-19T06:12:33.252Z,18944.00
2022-08-19T06:13:33.368Z,19808.00
2022-08-19T06:14:33.414Z,19776.00
2022-08-19T06:15:33.247Z,19712.00
2022-08-19T06:16:33.278Z,18400.00
2022-08-19T06:17:33.220Z,17600.00
2022-08-19T06:18:33.187Z,16560.00
2022-08-19T06:19:33.190Z,16092.00
2022-08-19T06:20:54.387Z,16936.00
2022-08-19T06:21:34.199Z,16720.00
2022-08-19T06:22:33.153Z,16004.00
2022-08-19T06:23:33.145Z,14456.00
2022-08-19T06:24:33.122Z,14084.00
2022-08-19T06:25:33.120Z,14108.00
2022-08-19T06:26:33.213Z,13872.00
2022-08-19T06:27:33.127Z,14088.00
2022-08-19T06:28:33.096Z,14444.00
2022-08-19T06:29:33.061Z,15148.00
2022-08-19T06:30:33.074Z,16044.00
2022-08-19T06:31:33.101Z,17464.00
2022-08-19T06:32:33.056Z,17540.00
2022-08-19T06:33:33.027Z,16812.00
2022-08-19T06:34:33.032Z,15860.00
2022-08-19T06:35:33.024Z,14812.00
2022-08-19T06:36:33.019Z,14792.00
2022-08-19T06:37:32.970Z,14752.00
2022-08-19T06:38:32.952Z,14660.00
2022-08-19T06:39:33.004Z,14884.00
2022-08-19T06:40:32.970Z,15140.00
2022-08-19T06:41:32.995Z,15648.00
2022-08-19T06:42:32.925Z,16588.00
2022-08-19T06:43:32.918Z,17168.00
2022-08-19T06:44:32.909Z,18432.00
2022-08-19T06:45:34.947Z,19072.00
2022-08-19T06:46:33.582Z,19392.00
2022-08-19T06:47:32.892Z,19616.00
2022-08-19T06:48:34.649Z,19680.00
2022-08-19T06:49:33.844Z,19616.00
2022-08-19T06:50:32.840Z,19296.00
2022-08-19T06:52:34.049Z,19296.00
2022-08-19T06:53:32.808Z,19584.00
2022-08-19T06:54:32.789Z,20416.00
2022-08-19T06:55:33.775Z,21216.00
2022-08-19T06:56:32.811Z,22336.00
2022-08-19T06:57:32.735Z,22528.00
2022-08-19T06:58:32.749Z,22816.00
2022-08-19T06:59:32.737Z,23200.00
2022-08-19T07:00:32.813Z,22816.00
2022-08-19T07:01:32.764Z,21856.00
2022-08-19T07:02:32.700Z,21024.00
2022-08-19T07:03:32.702Z,19616.00
2022-08-19T07:04:32.673Z,18400.00
2022-08-19T07:05:32.649Z,16828.00
2022-08-19T07:06:43.891Z,16128.00
2022-08-19T07:07:33.646Z,16120.00
2022-08-19T07:08:32.708Z,15432.00
2022-08-19T07:09:32.640Z,13012.00
2022-08-19T07:10:32.600Z,12184.00
2022-08-19T07:11:32.653Z,11540.00
2022-08-19T07:12:32.591Z,11072.00
2022-08-19T07:13:32.582Z,10880.00
2022-08-19T07:14:32.561Z,11100.00
2022-08-19T07:15:32.551Z,11184.00
2022-08-19T07:16:32.580Z,11580.00
2022-08-19T07:17:34.567Z,12240.00
2022-08-19T07:18:32.540Z,13052.00
2022-08-19T07:19:32.530Z,13396.00
2022-08-19T07:20:32.491Z,12756.00
2022-08-19T07:21:32.553Z,11580.00
2022-08-19T07:22:33.474Z,9912.00
2022-08-19T07:23:32.499Z,8692.00
2022-08-19T07:24:33.696Z,7960.00
2022-08-19T07:25:33.427Z,7692.00
2022-08-19T07:26:32.528Z,8148.00
2022-08-19T07:27:33.583Z,8880.00
2022-08-19T07:28:32.397Z,9212.00
2022-08-19T07:29:32.392Z,8840.00
2022-08-19T07:30:32.390Z,8360.00
2022-08-19T07:31:32.433Z,8420.00
2022-08-19T07:32:32.592Z,8912.00
2022-08-19T07:33:32.353Z,9044.00
2022-08-19T07:34:32.316Z,8644.00
2022-08-19T07:35:32.314Z,8384.00
2022-08-19T07:36:32.348Z,8184.00
2022-08-19T07:37:33.532Z,8060.00
2022-08-19T07:38:32.297Z,7904.00
2022-08-19T07:39:32.325Z,7876.00
2022-08-19T07:40:32.258Z,8304.00
2022-08-19T07:41:32.326Z,8624.00
2022-08-19T07:42:32.263Z,8652.00
2022-08-19T07:43:34.708Z,8452.00
2022-08-19T07:44:32.280Z,7920.00
2022-08-19T07:45:32.220Z,7564.00
2022-08-19T07:46:32.247Z,7916.00
2022-08-19T07:47:49.775Z,8632.00
2022-08-19T07:48:33.160Z,9544.00
2022-08-19T07:49:32.177Z,10372.00
2022-08-19T07:50:32.169Z,10616.00
2022-08-19T07:51:36.936Z,10188.00
2022-08-19T07:52:33.115Z,9208.00
2022-08-19T07:53:33.268Z,8284.00
2022-08-19T07:54:32.096Z,7856.00
2022-08-19T07:55:42.296Z,7820.00
2022-08-19T07:56:33.149Z,7952.00
2022-08-19T07:57:32.229Z,7832.00
2022-08-19T07:58:32.066Z,7508.00
2022-08-19T07:59:32.077Z,7308.00
2022-08-19T08:00:32.048Z,7340.00
2022-08-19T08:01:32.163Z,7524.00
2022-08-19T08:02:32.037Z,7308.00
2022-08-19T08:03:32.005Z,6880.00
2022-08-19T08:04:31.969Z,6744.00
2022-08-19T08:05:34.913Z,6920.00
2022-08-19T08:06:32.016Z,7064.00
2022-08-19T08:07:31.987Z,7040.00
2022-08-19T08:08:31.999Z,7088.00
2022-08-19T08:09:31.954Z,7360.00
2022-08-19T08:10:31.920Z,7692.00
2022-08-19T08:11:31.984Z,7724.00
2022-08-19T08:12:34.779Z,7564.00
2022-08-19T08:13:31.904Z,7600.00
2022-08-19T08:14:35.125Z,7784.00
2022-08-19T08:15:31.873Z,8308.00
2022-08-19T08:16:31.893Z,8404.00
2022-08-19T08:17:48.625Z,8084.00
2022-08-19T08:18:32.833Z,7756.00
2022-08-19T08:19:31.831Z,7908.00
2022-08-19T08:20:31.825Z,8856.00
2022-08-19T08:21:31.904Z,10760.00
2022-08-19T08:22:31.796Z,12548.00
2022-08-19T08:23:31.784Z,11904.00
2022-08-19T08:24:31.807Z,9648.00
2022-08-19T08:25:32.559Z,8260.00
2022-08-19T08:26:31.811Z,6908.00
2022-08-19T08:27:31.750Z,6404.00
2022-08-19T08:28:31.726Z,6836.00
2022-08-19T08:29:34.920Z,7320.00
2022-08-19T08:30:32.741Z,7488.00
2022-08-19T08:31:31.747Z,7236.00
2022-08-19T08:32:31.678Z,6908.00
2022-08-19T08:33:34.689Z,6668.00
2022-08-19T08:34:31.636Z,6464.00
2022-08-19T08:35:31.658Z,6324.00
2022-08-19T08:36:31.681Z,6440.00
2022-08-19T08:37:31.629Z,7208.00
2022-08-19T08:38:33.629Z,8156.00
2022-08-19T08:39:32.647Z,8168.00
2022-08-19T08:40:31.600Z,7992.00
2022-08-19T08:41:31.639Z,8124.00
2022-08-19T08:42:31.568Z,8192.00
2022-08-19T08:43:32.524Z,8064.00
2022-08-19T08:44:31.556Z,8088.00
2022-08-19T08:45:32.964Z,8320.00
2022-08-19T08:46:32.751Z,8580.00
2022-08-19T08:47:31.546Z,8672.00
2022-08-19T08:48:31.512Z,8760.00
2022-08-19T08:49:31.505Z,8772.00
2022-08-19T08:50:31.481Z,8648.00
2022-08-19T08:51:34.983Z,8624.00
2022-08-19T08:52:32.189Z,8800.00
2022-08-19T08:53:34.416Z,8976.00
2022-08-19T08:54:31.441Z,9316.00
2022-08-19T08:55:36.439Z,10184.00
2022-08-19T08:56:32.546Z,11248.00
2022-08-19T08:57:37.630Z,11892.00
2022-08-19T08:58:32.419Z,12080.00
2022-08-19T08:59:31.383Z,12396.00
2022-08-19T09:00:31.375Z,13304.00
2022-08-19T09:01:31.427Z,14996.00
2022-08-19T09:02:31.335Z,17280.00
2022-08-19T09:03:31.593Z,19232.00
2022-08-19T09:04:31.317Z,20672.00
2022-08-19T09:05:39.551Z,22496.00
2022-08-19T09:06:32.377Z,23584.00
2022-08-19T09:07:34.754Z,23360.00
2022-08-19T09:08:32.298Z,23712.00
2022-08-19T09:09:31.285Z,23904.00
2022-08-19T09:10:31.265Z,22624.00
2022-08-19T09:11:43.001Z,21248.00
2022-08-19T09:12:32.238Z,19616.00
2022-08-19T09:13:31.253Z,18880.00
2022-08-19T09:14:49.806Z,20064.00
2022-08-19T09:15:33.344Z,22656.00
2022-08-19T09:16:31.221Z,25056.00
2022-08-19T09:17:31.187Z,25632.00
2022-08-19T09:18:31.180Z,23776.00
2022-08-19T09:19:31.169Z,20736.00
2022-08-19T09:20:31.148Z,18688.00
2022-08-19T09:21:33.301Z,18112.00
2022-08-19T09:22:31.126Z,19488.00
2022-08-19T09:23:31.146Z,22976.00
2022-08-19T09:24:31.391Z,26944.00
2022-08-19T09:25:31.099Z,27712.00
2022-08-19T09:26:47.452Z,25280.00
2022-08-19T09:27:42.017Z,23680.00
2022-08-19T09:28:32.063Z,22784.00
2022-08-19T09:29:31.053Z,21248.00
2022-08-19T09:30:31.327Z,20512.00
2022-08-19T09:31:31.073Z,20576.00
2022-08-19T09:32:31.050Z,20576.00
2022-08-19T09:33:31.021Z,20416.00
2022-08-19T09:34:31.008Z,20672.00
2022-08-19T09:35:31.960Z,20928.00
2022-08-19T09:36:34.886Z,20384.00
2022-08-19T09:37:30.997Z,19424.00
2022-08-19T09:38:30.952Z,18784.00
2022-08-19T09:39:36.136Z,18496.00
2022-08-19T09:40:37.768Z,17696.00
2022-08-19T09:41:32.001Z,16856.00
2022-08-19T09:42:35.345Z,15648.00
2022-08-19T09:43:33.622Z,14212.00
2022-08-19T09:44:31.894Z,13464.00
2022-08-19T09:45:30.871Z,12768.00
2022-08-19T09:46:30.940Z,12292.00
2022-08-19T09:47:30.855Z,13736.00
2022-08-19T09:48:30.823Z,16356.00
2022-08-19T09:49:30.835Z,17452.00
2022-08-19T09:50:30.795Z,17312.00
2022-08-19T09:51:30.872Z,16884.00
2022-08-19T09:52:32.761Z,15400.00
2022-08-19T09:53:30.801Z,13708.00
2022-08-19T09:54:30.771Z,13536.00
2022-08-19T09:55:31.942Z,13148.00
2022-08-19T09:56:30.811Z,11904.00
2022-08-19T09:57:30.732Z,11016.00
2022-08-19T09:58:30.737Z,10452.00
2022-08-19T09:59:30.727Z,10292.00
2022-08-19T10:00:30.904Z,10544.00
2022-08-19T10:01:30.766Z,10916.00
2022-08-19T10:02:30.664Z,11440.00
2022-08-19T10:03:30.675Z,12084.00
2022-08-19T10:04:30.634Z,12360.00
2022-08-19T10:05:30.656Z,12328.00
2022-08-19T10:06:43.254Z,11596.00
2022-08-19T10:07:36.240Z,10672.00
2022-08-19T10:08:31.615Z,10476.00
2022-08-19T10:09:34.494Z,10196.00
2022-08-19T10:10:30.585Z,9744.00
2022-08-19T10:11:39.946Z,9936.00
2022-08-19T10:12:31.579Z,10160.00
2022-08-19T10:13:30.552Z,9740.00
2022-08-19T10:14:30.544Z,9312.00
2022-08-19T10:15:30.528Z,8980.00
2022-08-19T10:16:31.563Z,8792.00
2022-08-19T10:17:33.441Z,9444.00
2022-08-19T10:18:30.569Z,11908.00
2022-08-19T10:19:30.479Z,14948.00
2022-08-19T10:20:30.472Z,16544.00
2022-08-19T10:21:32.172Z,16848.00
2022-08-19T10:22:30.453Z,16084.00
2022-08-19T10:23:30.455Z,15132.00
2022-08-19T10:24:30.432Z,15256.00
2022-08-19T10:25:30.439Z,15600.00
2022-08-19T10:26:30.469Z,15772.00
2022-08-19T10:27:32.172Z,16036.00
2022-08-19T10:28:30.379Z,17064.00
2022-08-19T10:29:32.225Z,19360.00
2022-08-19T10:30:30.368Z,20736.00
2022-08-19T10:31:58.812Z,20128.00
2022-08-19T10:32:33.998Z,18304.00
2022-08-19T10:33:39.017Z,16452.00
2022-08-19T10:34:31.325Z,15152.00
2022-08-19T10:35:30.326Z,13888.00
2022-08-19T10:36:30.350Z,13244.00
2022-08-19T10:37:31.362Z,14616.00
2022-08-19T10:38:31.858Z,16736.00
2022-08-19T10:39:30.495Z,18176.00
2022-08-19T10:40:30.333Z,18912.00
2022-08-19T10:41:30.315Z,19872.00
2022-08-19T10:42:30.226Z,21056.00
2022-08-19T10:43:30.258Z,21408.00
2022-08-19T10:44:32.016Z,20896.00
2022-08-19T10:45:30.200Z,19872.00
2022-08-19T10:46:30.238Z,18400.00
2022-08-19T10:47:31.775Z,16012.00
2022-08-19T10:48:30.198Z,13688.00
2022-08-19T10:49:30.168Z,11720.00
2022-08-19T10:50:30.206Z,10432.00
2022-08-19T10:51:30.167Z,10052.00
2022-08-19T10:52:32.409Z,10712.00
2022-08-19T10:53:30.122Z,11636.00
2022-08-19T10:54:33.361Z,11560.00
2022-08-19T10:55:30.086Z,10980.00
2022-08-19T10:56:30.132Z,10064.00
2022-08-19T10:57:40.855Z,9736.00
2022-08-19T10:58:31.078Z,10236.00
2022-08-19T10:59:35.326Z,10852.00
2022-08-19T11:00:31.030Z,10932.00
2022-08-19T11:01:30.089Z,10436.00
2022-08-19T11:02:30.017Z,9844.00
2022-08-19T11:03:30.015Z,9696.00
2022-08-19T11:04:30.000Z,10060.00
2022-08-19T11:05:29.972Z,10720.00
2022-08-19T11:06:31.027Z,11512.00
2022-08-19T11:07:29.964Z,12520.00
2022-08-19T11:08:29.949Z,13568.00
2022-08-19T11:09:34.015Z,14316.00
2022-08-19T11:10:29.940Z,14660.00
2022-08-19T11:11:29.967Z,15024.00
2022-08-19T11:12:29.891Z,15848.00
2022-08-19T11:13:29.903Z,17220.00
2022-08-19T11:14:30.534Z,18720.00
2022-08-19T11:15:29.856Z,19008.00
2022-08-19T11:16:29.892Z,17856.00
2022-08-19T11:17:29.826Z,16124.00
2022-08-19T11:18:29.848Z,15224.00
2022-08-19T11:19:29.801Z,14912.00
2022-08-19T11:20:29.828Z,14284.00
2022-08-19T11:21:29.850Z,13268.00
2022-08-19T11:22:36.730Z,12024.00
2022-08-19T11:23:30.761Z,10648.00
2022-08-19T11:24:29.787Z,9284.00
2022-08-19T11:25:29.753Z,8508.00
2022-08-19T11:26:29.803Z,8304.00
2022-08-19T11:27:29.730Z,8348.00
2022-08-19T11:28:29.724Z,8060.00
2022-08-19T11:29:29.711Z,7376.00
2022-08-19T11:30:29.680Z,6796.00
2022-08-19T11:31:29.717Z,6836.00
2022-08-19T11:32:29.685Z,7424.00
2022-08-19T11:33:29.664Z,7968.00
2022-08-19T11:34:29.659Z,7888.00
2022-08-19T11:35:29.644Z,7184.00
2022-08-19T11:36:29.665Z,6424.00
2022-08-19T11:37:29.602Z,5912.00
2022-08-19T11:38:29.650Z,5584.00
2022-08-19T11:39:29.600Z,5320.00
2022-08-19T11:40:29.574Z,5220.00
2022-08-19T11:41:29.595Z,5440.00
2022-08-19T11:42:29.566Z,5784.00
2022-08-19T11:43:30.874Z,6124.00
2022-08-19T11:44:29.522Z,6500.00
2022-08-19T11:45:29.535Z,6844.00
2022-08-19T11:46:29.552Z,6904.00
2022-08-19T11:47:29.498Z,6960.00
2022-08-19T11:48:29.511Z,7212.00
2022-08-19T11:49:29.465Z,7700.00
2022-08-19T11:50:29.472Z,8168.00
2022-08-19T11:51:29.514Z,8568.00
2022-08-19T11:52:29.480Z,9368.00
2022-08-19T11:53:29.424Z,10664.00
2022-08-19T11:54:29.430Z,11784.00
2022-08-19T11:55:29.411Z,12368.00
2022-08-19T11:56:29.463Z,12508.00
2022-08-19T11:57:29.393Z,12360.00
2022-08-19T11:58:29.364Z,11944.00
2022-08-19T11:59:29.366Z,11288.00
2022-08-19T12:00:29.355Z,10528.00
2022-08-19T12:01:29.393Z,10100.00
2022-08-19T12:02:29.354Z,10300.00
2022-08-19T12:03:29.363Z,10728.00
2022-08-19T12:04:29.318Z,10896.00
2022-08-19T12:05:29.293Z,10548.00
2022-08-19T12:06:29.329Z,9640.00
2022-08-19T12:07:29.270Z,8588.00
2022-08-19T12:08:29.275Z,7448.00
2022-08-19T12:09:30.983Z,6120.00
2022-08-19T12:10:29.261Z,4916.00
2022-08-19T12:11:29.275Z,4132.00
2022-08-19T12:12:30.253Z,3712.00
2022-08-19T12:13:29.230Z,3380.00
2022-08-19T12:14:29.217Z,3048.00
2022-08-19T12:15:29.194Z,2760.00
2022-08-19T12:16:30.241Z,2520.00
2022-08-19T12:17:29.166Z,2360.00
2022-08-19T12:18:29.144Z,2308.00
2022-08-19T12:19:29.175Z,2348.00
2022-08-19T12:20:29.136Z,2416.00